sensor_id;sensor_type;location;lat;lon;timestamp;P1;durP1;ratioP1;P2;durP2;ratioP2
48925;SDS011;39838;59.938;30.642;2022-10-24T00:02:23;4.43;;;2.70;;
48925;SDS011;39838;59.938;30.642;2022-10-24T00:04:50;8.02;;;3.22;;
48925;SDS011;39838;59.938;30.642;2022-10-24T00:07:21;4.57;;;3.03;;
48925;SDS011;39838;59.938;30.642;2022-10-24T00:09:48;4.43;;;3.00;;
48925;SDS011;39838;59.938;30.642;2022-10-24T00:12:16;6.82;;;3.53;;
48925;SDS011;39838;59.938;30.642;2022-10-24T00:14:43;5.07;;;2.90;;
48925;SDS011;39838;59.938;30.642;2022-10-24T00:17:10;5.70;;;2.85;;
48925;SDS011;39838;59.938;30.642;2022-10-24T00:19:38;6.07;;;3.08;;
48925;SDS011;39838;59.938;30.642;2022-10-24T00:22:05;5.53;;;2.80;;
48925;SDS011;39838;59.938;30.642;2022-10-24T00:24:33;7.22;;;3.17;;
48925;SDS011;39838;59.938;30.642;2022-10-24T00:27:00;6.40;;;3.17;;
48925;SDS011;39838;59.938;30.642;2022-10-24T00:29:27;5.50;;;2.90;;
48925;SDS011;39838;59.938;30.642;2022-10-24T00:31:54;5.55;;;3.10;;
48925;SDS011;39838;59.938;30.642;2022-10-24T00:34:22;4.95;;;3.05;;
48925;SDS011;39838;59.938;30.642;2022-10-24T00:36:49;4.05;;;3.00;;
48925;SDS011;39838;59.938;30.642;2022-10-24T00:39:16;4.95;;;3.10;;
48925;SDS011;39838;59.938;30.642;2022-10-24T00:41:45;5.60;;;3.40;;
48925;SDS011;39838;59.938;30.642;2022-10-24T00:44:13;5.60;;;3.28;;
48925;SDS011;39838;59.938;30.642;2022-10-24T00:46:44;5.75;;;2.80;;
48925;SDS011;39838;59.938;30.642;2022-10-24T00:49:15;6.95;;;3.22;;
48925;SDS011;39838;59.938;30.642;2022-10-24T00:51:45;7.95;;;3.08;;
48925;SDS011;39838;59.938;30.642;2022-10-24T00:54:16;5.65;;;3.00;;
48925;SDS011;39838;59.938;30.642;2022-10-24T00:56:46;7.60;;;3.13;;
48925;SDS011;39838;59.938;30.642;2022-10-24T00:59:23;5.40;;;2.80;;
48925;SDS011;39838;59.938;30.642;2022-10-24T01:01:51;5.93;;;3.10;;
48925;SDS011;39838;59.938;30.642;2022-10-24T01:04:18;9.38;;;3.38;;
48925;SDS011;39838;59.938;30.642;2022-10-24T01:06:46;4.40;;;3.05;;
48925;SDS011;39838;59.938;30.642;2022-10-24T01:09:26;6.95;;;3.30;;
48925;SDS011;39838;59.938;30.642;2022-10-24T01:12:15;7.57;;;3.33;;
48925;SDS011;39838;59.938;30.642;2022-10-24T01:14:52;5.45;;;3.20;;
48925;SDS011;39838;59.938;30.642;2022-10-24T01:17:30;8.40;;;3.30;;
48925;SDS011;39838;59.938;30.642;2022-10-24T01:20:08;9.15;;;3.55;;
48925;SDS011;39838;59.938;30.642;2022-10-24T01:22:56;5.38;;;2.90;;
48925;SDS011;39838;59.938;30.642;2022-10-24T01:25:34;5.43;;;2.78;;
48925;SDS011;39838;59.938;30.642;2022-10-24T01:28:11;11.75;;;3.88;;
48925;SDS011;39838;59.938;30.642;2022-10-24T01:30:45;5.45;;;3.22;;
48925;SDS011;39838;59.938;30.642;2022-10-24T01:33:18;6.38;;;2.80;;
48925;SDS011;39838;59.938;30.642;2022-10-24T01:35:51;5.55;;;3.20;;
48925;SDS011;39838;59.938;30.642;2022-10-24T01:38:23;5.95;;;2.97;;
48925;SDS011;39838;59.938;30.642;2022-10-24T01:40:55;5.18;;;2.95;;
48925;SDS011;39838;59.938;30.642;2022-10-24T01:43:26;5.35;;;2.88;;
48925;SDS011;39838;59.938;30.642;2022-10-24T01:45:59;5.70;;;2.90;;
48925;SDS011;39838;59.938;30.642;2022-10-24T01:48:30;5.72;;;2.97;;
48925;SDS011;39838;59.938;30.642;2022-10-24T01:51:01;5.75;;;3.10;;
48925;SDS011;39838;59.938;30.642;2022-10-24T01:53:30;10.15;;;3.05;;
48925;SDS011;39838;59.938;30.642;2022-10-24T01:55:57;6.10;;;2.97;;
48925;SDS011;39838;59.938;30.642;2022-10-24T01:58:25;4.63;;;2.85;;
48925;SDS011;39838;59.938;30.642;2022-10-24T02:00:54;5.35;;;3.10;;
48925;SDS011;39838;59.938;30.642;2022-10-24T02:03:28;4.80;;;2.85;;
48925;SDS011;39838;59.938;30.642;2022-10-24T02:05:58;5.93;;;3.30;;
48925;SDS011;39838;59.938;30.642;2022-10-24T02:08:33;6.60;;;3.47;;
48925;SDS011;39838;59.938;30.642;2022-10-24T02:11:08;5.78;;;2.80;;
48925;SDS011;39838;59.938;30.642;2022-10-24T02:13:38;5.85;;;2.85;;
48925;SDS011;39838;59.938;30.642;2022-10-24T02:16:12;4.28;;;3.00;;
48925;SDS011;39838;59.938;30.642;2022-10-24T02:18:43;4.40;;;3.00;;
48925;SDS011;39838;59.938;30.642;2022-10-24T02:21:14;4.18;;;3.00;;
48925;SDS011;39838;59.938;30.642;2022-10-24T02:23:46;8.13;;;3.25;;
48925;SDS011;39838;59.938;30.642;2022-10-24T02:26:20;6.55;;;3.20;;
48925;SDS011;39838;59.938;30.642;2022-10-24T02:28:54;7.10;;;3.03;;
48925;SDS011;39838;59.938;30.642;2022-10-24T02:31:29;6.00;;;2.97;;
48925;SDS011;39838;59.938;30.642;2022-10-24T02:33:58;6.50;;;3.30;;
48925;SDS011;39838;59.938;30.642;2022-10-24T02:36:27;4.90;;;2.90;;
48925;SDS011;39838;59.938;30.642;2022-10-24T02:38:57;4.95;;;3.17;;
48925;SDS011;39838;59.938;30.642;2022-10-24T02:41:27;6.18;;;3.30;;
48925;SDS011;39838;59.938;30.642;2022-10-24T02:43:57;5.10;;;3.05;;
48925;SDS011;39838;59.938;30.642;2022-10-24T02:46:29;7.60;;;3.20;;
48925;SDS011;39838;59.938;30.642;2022-10-24T02:48:58;5.53;;;3.05;;
48925;SDS011;39838;59.938;30.642;2022-10-24T02:51:28;8.25;;;2.92;;
48925;SDS011;39838;59.938;30.642;2022-10-24T02:53:59;7.55;;;3.38;;
48925;SDS011;39838;59.938;30.642;2022-10-24T02:56:26;8.93;;;3.85;;
48925;SDS011;39838;59.938;30.642;2022-10-24T02:58:54;6.80;;;3.30;;
48925;SDS011;39838;59.938;30.642;2022-10-24T03:01:21;4.97;;;3.50;;
48925;SDS011;39838;59.938;30.642;2022-10-24T03:03:50;5.18;;;3.22;;
48925;SDS011;39838;59.938;30.642;2022-10-24T03:06:17;5.43;;;3.05;;
48925;SDS011;39838;59.938;30.642;2022-10-24T03:08:44;4.97;;;3.15;;
48925;SDS011;39838;59.938;30.642;2022-10-24T03:11:11;5.45;;;3.05;;
48925;SDS011;39838;59.938;30.642;2022-10-24T03:13:38;7.20;;;3.25;;
48925;SDS011;39838;59.938;30.642;2022-10-24T03:16:06;6.72;;;2.90;;
48925;SDS011;39838;59.938;30.642;2022-10-24T03:18:33;6.70;;;3.17;;
48925;SDS011;39838;59.938;30.642;2022-10-24T03:21:01;5.78;;;3.20;;
48925;SDS011;39838;59.938;30.642;2022-10-24T03:23:29;6.80;;;3.17;;
48925;SDS011;39838;59.938;30.642;2022-10-24T03:25:57;14.45;;;5.00;;
48925;SDS011;39838;59.938;30.642;2022-10-24T03:28:24;8.88;;;2.88;;
48925;SDS011;39838;59.938;30.642;2022-10-24T03:30:51;7.15;;;3.03;;
48925;SDS011;39838;59.938;30.642;2022-10-24T03:33:20;6.25;;;3.30;;
48925;SDS011;39838;59.938;30.642;2022-10-24T03:35:50;5.30;;;3.30;;
48925;SDS011;39838;59.938;30.642;2022-10-24T03:38:19;6.18;;;3.20;;
48925;SDS011;39838;59.938;30.642;2022-10-24T03:40:47;7.72;;;3.50;;
48925;SDS011;39838;59.938;30.642;2022-10-24T03:43:14;7.82;;;3.13;;
48925;SDS011;39838;59.938;30.642;2022-10-24T03:45:42;8.00;;;3.13;;
48925;SDS011;39838;59.938;30.642;2022-10-24T03:48:09;7.28;;;3.40;;
48925;SDS011;39838;59.938;30.642;2022-10-24T03:50:37;4.43;;;2.88;;
48925;SDS011;39838;59.938;30.642;2022-10-24T03:53:04;6.10;;;2.92;;
48925;SDS011;39838;59.938;30.642;2022-10-24T03:55:33;7.50;;;3.60;;
48925;SDS011;39838;59.938;30.642;2022-10-24T03:58:00;5.05;;;3.20;;
48925;SDS011;39838;59.938;30.642;2022-10-24T04:00:27;8.07;;;3.00;;
48925;SDS011;39838;59.938;30.642;2022-10-24T04:02:54;5.30;;;3.13;;
48925;SDS011;39838;59.938;30.642;2022-10-24T04:05:21;5.55;;;3.10;;
48925;SDS011;39838;59.938;30.642;2022-10-24T04:07:49;7.95;;;3.90;;
48925;SDS011;39838;59.938;30.642;2022-10-24T04:10:16;7.68;;;3.65;;
48925;SDS011;39838;59.938;30.642;2022-10-24T04:12:44;8.55;;;3.70;;
48925;SDS011;39838;59.938;30.642;2022-10-24T04:15:11;7.95;;;3.92;;
48925;SDS011;39838;59.938;30.642;2022-10-24T04:17:39;6.65;;;3.63;;
48925;SDS011;39838;59.938;30.642;2022-10-24T04:20:06;9.07;;;4.20;;
48925;SDS011;39838;59.938;30.642;2022-10-24T04:22:33;6.03;;;3.63;;
48925;SDS011;39838;59.938;30.642;2022-10-24T04:25:00;7.28;;;3.75;;
48925;SDS011;39838;59.938;30.642;2022-10-24T04:27:29;9.38;;;3.70;;
48925;SDS011;39838;59.938;30.642;2022-10-24T04:29:57;8.98;;;4.15;;
48925;SDS011;39838;59.938;30.642;2022-10-24T04:32:24;6.93;;;3.90;;
48925;SDS011;39838;59.938;30.642;2022-10-24T04:34:51;16.52;;;4.18;;
48925;SDS011;39838;59.938;30.642;2022-10-24T04:37:18;8.02;;;4.40;;
48925;SDS011;39838;59.938;30.642;2022-10-24T04:39:45;8.60;;;4.53;;
48925;SDS011;39838;59.938;30.642;2022-10-24T04:42:13;11.25;;;4.90;;
48925;SDS011;39838;59.938;30.642;2022-10-24T04:44:40;9.50;;;4.80;;
48925;SDS011;39838;59.938;30.642;2022-10-24T04:47:08;9.85;;;4.50;;
48925;SDS011;39838;59.938;30.642;2022-10-24T04:49:35;9.13;;;4.10;;
48925;SDS011;39838;59.938;30.642;2022-10-24T04:52:03;8.63;;;4.30;;
48925;SDS011;39838;59.938;30.642;2022-10-24T04:54:30;7.05;;;3.70;;
48925;SDS011;39838;59.938;30.642;2022-10-24T04:56:58;8.73;;;4.00;;
48925;SDS011;39838;59.938;30.642;2022-10-24T04:59:25;8.35;;;4.43;;
48925;SDS011;39838;59.938;30.642;2022-10-24T05:01:52;8.60;;;3.67;;
48925;SDS011;39838;59.938;30.642;2022-10-24T05:04:21;6.32;;;3.65;;
48925;SDS011;39838;59.938;30.642;2022-10-24T05:06:48;6.75;;;4.03;;
48925;SDS011;39838;59.938;30.642;2022-10-24T05:09:15;7.90;;;3.80;;
48925;SDS011;39838;59.938;30.642;2022-10-24T05:11:42;9.88;;;3.63;;
48925;SDS011;39838;59.938;30.642;2022-10-24T05:14:09;9.52;;;3.92;;
48925;SDS011;39838;59.938;30.642;2022-10-24T05:16:36;6.93;;;3.67;;
48925;SDS011;39838;59.938;30.642;2022-10-24T05:19:04;7.43;;;3.78;;
48925;SDS011;39838;59.938;30.642;2022-10-24T05:21:32;11.60;;;3.92;;
48925;SDS011;39838;59.938;30.642;2022-10-24T05:23:59;8.73;;;4.43;;
48925;SDS011;39838;59.938;30.642;2022-10-24T05:26:26;10.45;;;5.20;;
48925;SDS011;39838;59.938;30.642;2022-10-24T05:28:53;12.40;;;6.43;;
48925;SDS011;39838;59.938;30.642;2022-10-24T05:31:20;8.73;;;5.55;;
48925;SDS011;39838;59.938;30.642;2022-10-24T05:33:48;9.27;;;5.50;;
48925;SDS011;39838;59.938;30.642;2022-10-24T05:36:15;8.52;;;4.50;;
48925;SDS011;39838;59.938;30.642;2022-10-24T05:38:43;8.60;;;5.00;;
48925;SDS011;39838;59.938;30.642;2022-10-24T05:41:11;10.25;;;4.97;;
48925;SDS011;39838;59.938;30.642;2022-10-24T05:43:38;8.63;;;4.50;;
48925;SDS011;39838;59.938;30.642;2022-10-24T05:46:05;8.73;;;4.95;;
48925;SDS011;39838;59.938;30.642;2022-10-24T05:48:34;8.10;;;4.25;;
48925;SDS011;39838;59.938;30.642;2022-10-24T05:51:01;10.68;;;4.00;;
48925;SDS011;39838;59.938;30.642;2022-10-24T05:53:28;11.88;;;4.32;;
48925;SDS011;39838;59.938;30.642;2022-10-24T05:55:57;12.32;;;4.80;;
48925;SDS011;39838;59.938;30.642;2022-10-24T05:58:24;8.85;;;4.43;;
48925;SDS011;39838;59.938;30.642;2022-10-24T06:00:51;10.05;;;3.90;;
48925;SDS011;39838;59.938;30.642;2022-10-24T06:03:19;7.20;;;3.40;;
48925;SDS011;39838;59.938;30.642;2022-10-24T06:05:46;6.05;;;3.38;;
48925;SDS011;39838;59.938;30.642;2022-10-24T06:08:13;7.57;;;3.75;;
48925;SDS011;39838;59.938;30.642;2022-10-24T06:10:40;7.30;;;3.80;;
48925;SDS011;39838;59.938;30.642;2022-10-24T06:13:12;9.18;;;3.90;;
48925;SDS011;39838;59.938;30.642;2022-10-24T06:15:40;9.05;;;4.20;;
48925;SDS011;39838;59.938;30.642;2022-10-24T06:18:07;6.38;;;3.78;;
48925;SDS011;39838;59.938;30.642;2022-10-24T06:20:34;9.90;;;3.63;;
48925;SDS011;39838;59.938;30.642;2022-10-24T06:23:02;7.20;;;4.18;;
48925;SDS011;39838;59.938;30.642;2022-10-24T06:25:29;8.27;;;3.63;;
48925;SDS011;39838;59.938;30.642;2022-10-24T06:27:56;8.20;;;3.97;;
48925;SDS011;39838;59.938;30.642;2022-10-24T06:30:25;7.95;;;3.83;;
48925;SDS011;39838;59.938;30.642;2022-10-24T06:32:52;7.45;;;3.67;;
48925;SDS011;39838;59.938;30.642;2022-10-24T06:35:19;7.85;;;3.45;;
48925;SDS011;39838;59.938;30.642;2022-10-24T06:37:46;8.70;;;3.85;;
48925;SDS011;39838;59.938;30.642;2022-10-24T06:40:14;6.40;;;3.47;;
48925;SDS011;39838;59.938;30.642;2022-10-24T06:42:41;7.38;;;3.47;;
48925;SDS011;39838;59.938;30.642;2022-10-24T06:45:08;7.88;;;3.60;;
48925;SDS011;39838;59.938;30.642;2022-10-24T06:47:37;6.03;;;3.15;;
48925;SDS011;39838;59.938;30.642;2022-10-24T06:50:05;5.88;;;3.47;;
48925;SDS011;39838;59.938;30.642;2022-10-24T06:52:32;6.63;;;3.80;;
48925;SDS011;39838;59.938;30.642;2022-10-24T06:55:00;7.57;;;3.58;;
48925;SDS011;39838;59.938;30.642;2022-10-24T06:57:28;8.70;;;3.70;;
48925;SDS011;39838;59.938;30.642;2022-10-24T06:59:55;9.13;;;3.90;;
48925;SDS011;39838;59.938;30.642;2022-10-24T07:02:22;7.38;;;3.90;;
48925;SDS011;39838;59.938;30.642;2022-10-24T07:04:50;7.43;;;4.00;;
48925;SDS011;39838;59.938;30.642;2022-10-24T07:07:18;9.57;;;4.00;;
48925;SDS011;39838;59.938;30.642;2022-10-24T07:09:50;9.93;;;4.22;;
48925;SDS011;39838;59.938;30.642;2022-10-24T07:12:19;10.23;;;4.32;;
48925;SDS011;39838;59.938;30.642;2022-10-24T07:14:47;9.63;;;4.63;;
48925;SDS011;39838;59.938;30.642;2022-10-24T07:17:14;8.45;;;4.00;;
48925;SDS011;39838;59.938;30.642;2022-10-24T07:19:41;9.25;;;4.15;;
48925;SDS011;39838;59.938;30.642;2022-10-24T07:22:10;8.00;;;3.95;;
48925;SDS011;39838;59.938;30.642;2022-10-24T07:24:37;7.70;;;3.55;;
48925;SDS011;39838;59.938;30.642;2022-10-24T07:27:04;6.68;;;3.58;;
48925;SDS011;39838;59.938;30.642;2022-10-24T07:29:31;7.95;;;3.20;;
48925;SDS011;39838;59.938;30.642;2022-10-24T07:31:58;10.18;;;3.83;;
48925;SDS011;39838;59.938;30.642;2022-10-24T07:34:26;5.88;;;3.10;;
48925;SDS011;39838;59.938;30.642;2022-10-24T07:36:53;7.10;;;3.20;;
48925;SDS011;39838;59.938;30.642;2022-10-24T07:39:21;7.45;;;3.28;;
48925;SDS011;39838;59.938;30.642;2022-10-24T07:41:49;6.85;;;3.38;;
48925;SDS011;39838;59.938;30.642;2022-10-24T07:44:16;7.80;;;3.65;;
48925;SDS011;39838;59.938;30.642;2022-10-24T07:46:43;5.93;;;2.70;;
48925;SDS011;39838;59.938;30.642;2022-10-24T07:49:10;4.68;;;2.70;;
48925;SDS011;39838;59.938;30.642;2022-10-24T07:51:37;7.05;;;2.65;;
48925;SDS011;39838;59.938;30.642;2022-10-24T07:54:06;5.70;;;2.90;;
48925;SDS011;39838;59.938;30.642;2022-10-24T07:56:34;4.97;;;2.47;;
48925;SDS011;39838;59.938;30.642;2022-10-24T07:59:02;9.02;;;2.83;;
48925;SDS011;39838;59.938;30.642;2022-10-24T08:01:29;6.30;;;2.70;;
48925;SDS011;39838;59.938;30.642;2022-10-24T08:03:56;6.60;;;2.67;;
48925;SDS011;39838;59.938;30.642;2022-10-24T08:06:24;6.90;;;2.63;;
48925;SDS011;39838;59.938;30.642;2022-10-24T08:08:54;4.28;;;2.40;;
48925;SDS011;39838;59.938;30.642;2022-10-24T08:11:22;3.90;;;2.42;;
48925;SDS011;39838;59.938;30.642;2022-10-24T08:13:53;4.88;;;2.60;;
48925;SDS011;39838;59.938;30.642;2022-10-24T08:16:21;4.25;;;2.30;;
48925;SDS011;39838;59.938;30.642;2022-10-24T08:18:50;4.50;;;2.30;;
48925;SDS011;39838;59.938;30.642;2022-10-24T08:21:19;3.88;;;2.20;;
48925;SDS011;39838;59.938;30.642;2022-10-24T08:23:48;5.97;;;2.50;;
48925;SDS011;39838;59.938;30.642;2022-10-24T08:26:18;15.40;;;2.85;;
48925;SDS011;39838;59.938;30.642;2022-10-24T08:28:47;6.50;;;2.50;;
48925;SDS011;39838;59.938;30.642;2022-10-24T08:31:16;5.25;;;2.70;;
48925;SDS011;39838;59.938;30.642;2022-10-24T08:33:46;4.10;;;1.95;;
48925;SDS011;39838;59.938;30.642;2022-10-24T08:36:15;6.95;;;2.40;;
48925;SDS011;39838;59.938;30.642;2022-10-24T08:38:44;5.10;;;2.60;;
48925;SDS011;39838;59.938;30.642;2022-10-24T08:41:14;7.32;;;2.90;;
48925;SDS011;39838;59.938;30.642;2022-10-24T08:43:47;6.20;;;2.63;;
48925;SDS011;39838;59.938;30.642;2022-10-24T08:46:21;5.25;;;2.75;;
48925;SDS011;39838;59.938;30.642;2022-10-24T08:48:59;6.13;;;2.25;;
48925;SDS011;39838;59.938;30.642;2022-10-24T08:51:33;8.60;;;2.30;;
48925;SDS011;39838;59.938;30.642;2022-10-24T08:54:06;4.18;;;2.45;;
48925;SDS011;39838;59.938;30.642;2022-10-24T08:56:39;6.57;;;2.60;;
48925;SDS011;39838;59.938;30.642;2022-10-24T08:59:08;6.38;;;2.63;;
48925;SDS011;39838;59.938;30.642;2022-10-24T09:01:40;7.07;;;2.88;;
48925;SDS011;39838;59.938;30.642;2022-10-24T09:04:13;4.85;;;2.40;;
48925;SDS011;39838;59.938;30.642;2022-10-24T09:06:44;4.55;;;2.20;;
48925;SDS011;39838;59.938;30.642;2022-10-24T09:09:15;6.05;;;2.60;;
48925;SDS011;39838;59.938;30.642;2022-10-24T09:11:48;4.43;;;2.33;;
48925;SDS011;39838;59.938;30.642;2022-10-24T09:14:19;7.30;;;2.35;;
48925;SDS011;39838;59.938;30.642;2022-10-24T09:16:50;7.32;;;2.65;;
48925;SDS011;39838;59.938;30.642;2022-10-24T09:19:21;3.97;;;2.30;;
48925;SDS011;39838;59.938;30.642;2022-10-24T09:21:50;5.88;;;2.50;;
48925;SDS011;39838;59.938;30.642;2022-10-24T09:24:23;4.47;;;2.58;;
48925;SDS011;39838;59.938;30.642;2022-10-24T09:26:57;6.07;;;2.65;;
48925;SDS011;39838;59.938;30.642;2022-10-24T09:29:29;5.60;;;2.30;;
48925;SDS011;39838;59.938;30.642;2022-10-24T09:31:59;6.80;;;3.00;;
48925;SDS011;39838;59.938;30.642;2022-10-24T09:34:27;5.20;;;2.80;;
48925;SDS011;39838;59.938;30.642;2022-10-24T09:36:54;5.75;;;2.88;;
48925;SDS011;39838;59.938;30.642;2022-10-24T09:39:26;7.97;;;3.13;;
48925;SDS011;39838;59.938;30.642;2022-10-24T09:41:55;5.78;;;2.60;;
48925;SDS011;39838;59.938;30.642;2022-10-24T09:44:26;8.25;;;2.83;;
48925;SDS011;39838;59.938;30.642;2022-10-24T09:47:04;6.65;;;2.85;;
48925;SDS011;39838;59.938;30.642;2022-10-24T09:49:34;5.85;;;2.97;;
48925;SDS011;39838;59.938;30.642;2022-10-24T09:52:06;6.95;;;3.10;;
48925;SDS011;39838;59.938;30.642;2022-10-24T09:54:42;7.28;;;3.03;;
48925;SDS011;39838;59.938;30.642;2022-10-24T09:57:12;8.10;;;3.33;;
48925;SDS011;39838;59.938;30.642;2022-10-24T09:59:42;7.82;;;3.00;;
48925;SDS011;39838;59.938;30.642;2022-10-24T10:02:14;6.30;;;3.38;;
48925;SDS011;39838;59.938;30.642;2022-10-24T10:04:49;6.22;;;3.10;;
48925;SDS011;39838;59.938;30.642;2022-10-24T10:07:36;6.25;;;3.00;;
48925;SDS011;39838;59.938;30.642;2022-10-24T10:10:05;8.63;;;3.33;;
48925;SDS011;39838;59.938;30.642;2022-10-24T10:12:54;10.60;;;3.47;;
48925;SDS011;39838;59.938;30.642;2022-10-24T10:15:25;9.25;;;3.88;;
48925;SDS011;39838;59.938;30.642;2022-10-24T10:17:57;11.30;;;3.67;;
48925;SDS011;39838;59.938;30.642;2022-10-24T10:20:27;6.38;;;2.92;;
48925;SDS011;39838;59.938;30.642;2022-10-24T10:23:08;6.60;;;2.90;;
48925;SDS011;39838;59.938;30.642;2022-10-24T10:25:42;6.45;;;3.50;;
48925;SDS011;39838;59.938;30.642;2022-10-24T10:28:17;9.48;;;3.47;;
48925;SDS011;39838;59.938;30.642;2022-10-24T10:30:47;10.55;;;3.28;;
48925;SDS011;39838;59.938;30.642;2022-10-24T10:33:19;11.93;;;3.83;;
48925;SDS011;39838;59.938;30.642;2022-10-24T10:35:55;11.23;;;3.70;;
48925;SDS011;39838;59.938;30.642;2022-10-24T10:38:36;9.48;;;3.65;;
48925;SDS011;39838;59.938;30.642;2022-10-24T10:41:14;8.85;;;3.33;;
48925;SDS011;39838;59.938;30.642;2022-10-24T10:43:53;6.00;;;3.05;;
48925;SDS011;39838;59.938;30.642;2022-10-24T10:46:29;10.02;;;3.00;;
48925;SDS011;39838;59.938;30.642;2022-10-24T10:49:07;8.27;;;3.50;;
48925;SDS011;39838;59.938;30.642;2022-10-24T10:51:41;10.85;;;3.53;;
48925;SDS011;39838;59.938;30.642;2022-10-24T10:54:21;6.07;;;3.00;;
48925;SDS011;39838;59.938;30.642;2022-10-24T10:56:58;6.75;;;3.00;;
48925;SDS011;39838;59.938;30.642;2022-10-24T10:59:33;7.70;;;3.35;;
48925;SDS011;39838;59.938;30.642;2022-10-24T11:02:15;4.82;;;2.72;;
48925;SDS011;39838;59.938;30.642;2022-10-24T11:04:55;5.65;;;2.65;;
48925;SDS011;39838;59.938;30.642;2022-10-24T11:07:31;7.45;;;2.85;;
48925;SDS011;39838;59.938;30.642;2022-10-24T11:10:05;7.75;;;2.88;;
48925;SDS011;39838;59.938;30.642;2022-10-24T11:12:38;7.35;;;2.90;;
48925;SDS011;39838;59.938;30.642;2022-10-24T11:15:08;9.13;;;2.97;;
48925;SDS011;39838;59.938;30.642;2022-10-24T11:17:44;4.78;;;2.78;;
48925;SDS011;39838;59.938;30.642;2022-10-24T11:20:17;8.40;;;2.97;;
48925;SDS011;39838;59.938;30.642;2022-10-24T11:22:48;8.82;;;3.00;;
48925;SDS011;39838;59.938;30.642;2022-10-24T11:25:20;8.23;;;2.72;;
48925;SDS011;39838;59.938;30.642;2022-10-24T11:27:53;4.43;;;2.72;;
48925;SDS011;39838;59.938;30.642;2022-10-24T11:30:33;7.25;;;2.70;;
48925;SDS011;39838;59.938;30.642;2022-10-24T11:33:07;7.95;;;2.90;;
48925;SDS011;39838;59.938;30.642;2022-10-24T11:35:52;7.05;;;2.83;;
48925;SDS011;39838;59.938;30.642;2022-10-24T11:38:26;5.93;;;2.55;;
48925;SDS011;39838;59.938;30.642;2022-10-24T11:41:11;10.35;;;2.75;;
48925;SDS011;39838;59.938;30.642;2022-10-24T11:43:49;7.50;;;3.05;;
48925;SDS011;39838;59.938;30.642;2022-10-24T11:46:21;5.72;;;2.70;;
48925;SDS011;39838;59.938;30.642;2022-10-24T11:48:50;8.00;;;2.58;;
48925;SDS011;39838;59.938;30.642;2022-10-24T11:51:23;4.47;;;2.40;;
48925;SDS011;39838;59.938;30.642;2022-10-24T11:53:56;6.07;;;2.40;;
48925;SDS011;39838;59.938;30.642;2022-10-24T11:56:26;7.00;;;2.13;;
48925;SDS011;39838;59.938;30.642;2022-10-24T11:58:58;4.53;;;2.40;;
48925;SDS011;39838;59.938;30.642;2022-10-24T12:10:35;6.18;;;3.03;;
48925;SDS011;39838;59.938;30.642;2022-10-24T12:13:22;6.10;;;2.70;;
48925;SDS011;39838;59.938;30.642;2022-10-24T12:16:03;8.02;;;3.20;;
48925;SDS011;39838;59.938;30.642;2022-10-24T12:18:38;6.40;;;3.13;;
48925;SDS011;39838;59.938;30.642;2022-10-24T12:21:09;4.90;;;2.60;;
48925;SDS011;39838;59.938;30.642;2022-10-24T12:23:40;7.35;;;2.58;;
48925;SDS011;39838;59.938;30.642;2022-10-24T12:26:15;5.07;;;2.42;;
48925;SDS011;39838;59.938;30.642;2022-10-24T12:28:51;6.80;;;2.97;;
48925;SDS011;39838;59.938;30.642;2022-10-24T12:31:20;4.65;;;2.80;;
48925;SDS011;39838;59.938;30.642;2022-10-24T12:37:06;6.95;;;2.90;;
48925;SDS011;39838;59.938;30.642;2022-10-24T12:39:38;5.13;;;2.53;;
48925;SDS011;39838;59.938;30.642;2022-10-24T12:42:11;13.68;;;3.72;;
48925;SDS011;39838;59.938;30.642;2022-10-24T12:44:41;9.70;;;2.90;;
48925;SDS011;39838;59.938;30.642;2022-10-24T12:47:29;7.70;;;3.30;;
48925;SDS011;39838;59.938;30.642;2022-10-24T12:49:58;6.88;;;3.10;;
48925;SDS011;39838;59.938;30.642;2022-10-24T12:53:19;6.93;;;3.53;;
48925;SDS011;39838;59.938;30.642;2022-10-24T12:56:04;7.82;;;3.13;;
48925;SDS011;39838;59.938;30.642;2022-10-24T12:58:36;7.78;;;3.20;;
48925;SDS011;39838;59.938;30.642;2022-10-24T13:01:08;8.88;;;4.28;;
48925;SDS011;39838;59.938;30.642;2022-10-24T13:03:44;12.15;;;4.72;;
48925;SDS011;39838;59.938;30.642;2022-10-24T13:06:32;7.15;;;3.45;;
48925;SDS011;39838;59.938;30.642;2022-10-24T13:09:22;5.72;;;3.17;;
48925;SDS011;39838;59.938;30.642;2022-10-24T13:12:02;5.35;;;2.72;;
48925;SDS011;39838;59.938;30.642;2022-10-24T13:17:40;4.10;;;2.55;;
48925;SDS011;39838;59.938;30.642;2022-10-24T13:20:16;6.00;;;2.50;;
48925;SDS011;39838;59.938;30.642;2022-10-24T13:22:47;6.07;;;2.50;;
48925;SDS011;39838;59.938;30.642;2022-10-24T13:25:17;6.80;;;2.30;;
48925;SDS011;39838;59.938;30.642;2022-10-24T13:27:47;6.60;;;2.80;;
48925;SDS011;39838;59.938;30.642;2022-10-24T13:34:22;7.18;;;2.78;;
48925;SDS011;39838;59.938;30.642;2022-10-24T13:36:52;6.57;;;2.80;;
48925;SDS011;39838;59.938;30.642;2022-10-24T13:39:26;12.57;;;3.17;;
48925;SDS011;39838;59.938;30.642;2022-10-24T13:41:59;8.05;;;2.75;;
48925;SDS011;39838;59.938;30.642;2022-10-24T13:44:33;6.30;;;2.80;;
48925;SDS011;39838;59.938;30.642;2022-10-24T13:47:11;11.45;;;2.97;;
48925;SDS011;39838;59.938;30.642;2022-10-24T13:49:46;7.13;;;2.85;;
48925;SDS011;39838;59.938;30.642;2022-10-24T13:52:18;8.02;;;3.10;;
48925;SDS011;39838;59.938;30.642;2022-10-24T13:54:49;8.82;;;2.70;;
48925;SDS011;39838;59.938;30.642;2022-10-24T13:57:24;10.23;;;2.80;;
48925;SDS011;39838;59.938;30.642;2022-10-24T13:59:55;8.57;;;2.92;;
48925;SDS011;39838;59.938;30.642;2022-10-24T14:02:24;4.50;;;2.60;;
48925;SDS011;39838;59.938;30.642;2022-10-24T14:04:54;6.90;;;2.80;;
48925;SDS011;39838;59.938;30.642;2022-10-24T14:07:24;5.50;;;2.72;;
48925;SDS011;39838;59.938;30.642;2022-10-24T14:09:55;7.05;;;2.60;;
48925;SDS011;39838;59.938;30.642;2022-10-24T14:12:26;5.72;;;2.80;;
48925;SDS011;39838;59.938;30.642;2022-10-24T14:14:57;6.32;;;3.10;;
48925;SDS011;39838;59.938;30.642;2022-10-24T14:17:27;9.65;;;3.20;;
48925;SDS011;39838;59.938;30.642;2022-10-24T14:19:58;8.85;;;3.15;;
48925;SDS011;39838;59.938;30.642;2022-10-24T14:22:33;9.10;;;3.42;;
48925;SDS011;39838;59.938;30.642;2022-10-24T14:25:04;10.57;;;3.65;;
48925;SDS011;39838;59.938;30.642;2022-10-24T14:27:32;10.65;;;3.78;;
48925;SDS011;39838;59.938;30.642;2022-10-24T14:30:02;10.25;;;4.43;;
48925;SDS011;39838;59.938;30.642;2022-10-24T14:32:30;27.80;;;7.70;;
48925;SDS011;39838;59.938;30.642;2022-10-24T14:34:58;20.33;;;7.40;;
48925;SDS011;39838;59.938;30.642;2022-10-24T14:37:29;27.88;;;7.60;;
48925;SDS011;39838;59.938;30.642;2022-10-24T14:39:59;26.05;;;8.02;;
48925;SDS011;39838;59.938;30.642;2022-10-24T14:42:28;28.23;;;8.45;;
48925;SDS011;39838;59.938;30.642;2022-10-24T14:44:57;27.10;;;8.82;;
48925;SDS011;39838;59.938;30.642;2022-10-24T14:47:27;30.13;;;11.48;;
48925;SDS011;39838;59.938;30.642;2022-10-24T14:49:56;57.75;;;19.05;;
48925;SDS011;39838;59.938;30.642;2022-10-24T14:52:25;37.30;;;10.70;;
48925;SDS011;39838;59.938;30.642;2022-10-24T14:54:55;40.67;;;12.52;;
48925;SDS011;39838;59.938;30.642;2022-10-24T14:57:29;50.30;;;13.88;;
48925;SDS011;39838;59.938;30.642;2022-10-24T14:59:58;41.60;;;10.18;;
48925;SDS011;39838;59.938;30.642;2022-10-24T15:02:33;27.35;;;8.30;;
48925;SDS011;39838;59.938;30.642;2022-10-24T15:05:13;31.88;;;9.18;;
48925;SDS011;39838;59.938;30.642;2022-10-24T15:07:42;22.80;;;8.45;;
48925;SDS011;39838;59.938;30.642;2022-10-24T15:10:19;36.45;;;9.13;;
48925;SDS011;39838;59.938;30.642;2022-10-24T15:12:53;23.33;;;8.43;;
48925;SDS011;39838;59.938;30.642;2022-10-24T15:15:27;31.60;;;9.35;;